Hlavní strana
METAR-TAF:

METAR-TAF

Letiště :

Mezinárodní letiště Oděsa

Oděsa, Ukrajina

zeměpisná šířka: 46-26N, zeměpisná délka: 030-46E, výška: 42 m

Aktuální stav počasí

Zpráva byla vytvořena před 11 minutami, v 13:30 UTC
Severoseverovýchodní vítr 2 kt
Teplota 19°C
Vlhkost vzduchu 52%
Tlak 1016 hPa
Viditelnost 10 km a více
Žádná oblačnost pod 1500 m, nevyskytují se cumulonimby.

METAR: UKOO 191330Z 03001MPS CAVOK 19/09 Q1016 R34/090060 NOSIG

Čas: 16:41 (13:41 UTC)

Předpověď počasí

Zpráva byla vytvořena před 2 hodinami a 38 minutami, v 11:03 UTC
Předpověď platná od 19 v 12 UTC do 20 v 12 UTC
Severní vítr 6 kt
Viditelnost: 3000 m
Oblačno až skoro zataženo ve výšce 700 ft
Polojasno ve výšce 2000 ft, Cumulonimbus.
kouřmo
Pravděpodobnost 40% :
Dočasný
od 19 v 15 UTC do 20 v 06 UTC
Viditelnost: 0400 m
ve výšce 200 ft
mlha

TAF: UKOO 191103Z 1912/2012 35003MPS 3000 BR BKN007 SCT020CB PROB40 TEMPO 1915/2006 0400 FG VV002

Stav a předpovědi počasí z více než 4 000 letišť (zprávy METAR a TAF).

Červené a žluté tečky na mapě představují dostupné meteorologické stanice.

Když kurzor umístíte na tečku, zobrazí se název stanice.

Pak kliknutím zobrazíte stav a předpověď počasí.

Chcete-li změnit mapu, kliknutím na zelené tlačítko se znaménkem +mapu přiblížíte, kliknutím na zelené tlačítko se znaménkem – mapu oddálíte a kliknutím na zelené šipky přejdete na sousední mapy.


METAR-TAF: